Time;durP1;ratioP1;P1;durP2;ratioP2;P2;SDS_P1;SDS_P2;PMS_P1;PMS_P2;Temp;Humidity;BMP_temperature;BMP_pressure;BME280_temperature;BME280_humidity;BME280_pressure;Samples;Min_cycle;Max_cycle;Signal;HPM_P1;HPM_P2
2021/08/25 00:00:48;;;;;;;13.35;10.57;;;11.60;99.90;;;;;;4893090;29;20044;-68
2021/08/25 00:03:15;;;;;;;13.73;10.85;;;11.70;99.90;;;;;;4893629;29;20515;-68
2021/08/25 00:05:44;;;;;;;13.75;10.75;;;11.70;99.90;;;;;;4894172;29;20044;-69
2021/08/25 00:08:11;;;;;;;17.15;11.50;;;11.70;99.90;;;;;;4893917;29;20100;-69
2021/08/25 00:10:39;;;;;;;18.75;11.65;;;11.70;99.90;;;;;;4894530;29;20068;-69
2021/08/25 00:13:07;;;;;;;14.02;11.00;;;11.70;99.90;;;;;;4894538;29;20048;-69
2021/08/25 00:15:39;;;;;;;15.20;11.57;;;11.70;99.90;;;;;;4894263;29;20041;-69
2021/08/25 00:18:08;;;;;;;13.90;11.18;;;11.70;99.90;;;;;;4894875;29;20108;-69
2021/08/25 00:20:36;;;;;;;14.27;11.40;;;11.70;99.90;;;;;;4892914;29;20381;-69
2021/08/25 00:23:04;;;;;;;15.65;11.73;;;11.70;99.90;;;;;;4893827;29;20048;-68
2021/08/25 00:25:32;;;;;;;16.70;11.48;;;11.70;99.90;;;;;;4894476;29;20072;-68
2021/08/25 00:28:00;;;;;;;15.23;11.35;;;11.60;99.90;;;;;;4895646;29;20417;-68
2021/08/25 00:30:28;;;;;;;15.73;11.27;;;11.60;99.90;;;;;;4892934;29;20055;-70
2021/08/25 00:32:55;;;;;;;16.05;11.93;;;11.60;99.90;;;;;;4886587;29;20505;-69
2021/08/25 00:35:22;;;;;;;14.45;11.45;;;11.60;99.90;;;;;;4894178;29;20156;-70
2021/08/25 00:37:52;;;;;;;18.90;11.43;;;11.50;99.90;;;;;;4892589;29;20427;-70
2021/08/25 00:40:20;;;;;;;16.00;11.07;;;11.50;99.90;;;;;;4900494;29;20052;-70
2021/08/25 00:42:47;;;;;;;17.80;11.50;;;11.50;99.90;;;;;;4893927;29;20044;-70
2021/08/25 00:45:15;;;;;;;15.27;12.23;;;11.40;99.90;;;;;;4893533;29;20116;-70
2021/08/25 00:47:43;;;;;;;15.45;11.15;;;11.40;99.90;;;;;;4887546;29;20062;-69
2021/08/25 00:50:12;;;;;;;14.68;11.30;;;11.40;99.90;;;;;;4891806;29;20100;-69
2021/08/25 00:52:41;;;;;;;15.27;10.98;;;11.40;99.90;;;;;;4895362;29;20412;-68
2021/08/25 00:55:13;;;;;;;15.27;11.32;;;11.40;99.90;;;;;;4895327;29;20097;-70
2021/08/25 00:57:45;;;;;;;15.70;11.60;;;11.30;99.90;;;;;;4895195;29;20048;-70
2021/08/25 01:00:13;;;;;;;15.25;11.32;;;11.30;99.90;;;;;;4895389;29;20036;-68
2021/08/25 01:03:12;;;;;;;14.63;11.32;;;11.30;99.90;;;;;;4895092;29;20049;-68
2021/08/25 01:05:42;;;;;;;16.52;11.52;;;11.30;99.90;;;;;;4892599;29;20910;-70
2021/08/25 01:08:11;;;;;;;14.55;11.52;;;11.30;99.90;;;;;;4914325;29;20079;-69
2021/08/25 01:10:38;;;;;;;14.80;11.20;;;11.20;99.90;;;;;;4893564;29;20045;-68
2021/08/25 01:13:08;;;;;;;14.73;11.27;;;11.20;99.90;;;;;;4895555;29;20109;-68
2021/08/25 01:15:41;;;;;;;15.18;12.20;;;11.20;99.90;;;;;;4895394;29;20045;-68
2021/08/25 01:18:13;;;;;;;13.48;10.98;;;11.20;99.90;;;;;;4897901;29;20140;-68
2021/08/25 01:20:46;;;;;;;13.82;11.00;;;11.20;99.90;;;;;;4897765;29;20077;-68
2021/08/25 01:23:13;;;;;;;;;;;11.10;99.90;;;;;;4898209;29;20049;-68
2021/08/25 01:25:42;;;;;;;15.10;12.13;;;11.10;99.90;;;;;;4896894;29;20317;-68
2021/08/25 01:28:14;;;;;;;15.73;11.88;;;11.10;99.90;;;;;;4897277;29;20044;-68
2021/08/25 01:30:41;;;;;;;17.45;13.00;;;11.00;99.90;;;;;;4897540;29;20147;-69
2021/08/25 01:33:24;;;;;;;18.00;12.48;;;11.00;99.90;;;;;;4898331;29;20048;-69
2021/08/25 01:35:52;;;;;;;17.08;12.57;;;11.00;99.90;;;;;;4896928;29;20053;-68
2021/08/25 01:38:41;;;;;;;17.25;13.05;;;10.90;99.90;;;;;;4897129;29;20052;-69
2021/08/25 01:41:09;;;;;;;17.23;13.38;;;10.90;99.90;;;;;;4896973;29;20041;-69
2021/08/25 01:43:37;;;;;;;17.38;13.45;;;10.90;99.90;;;;;;4887484;29;20048;-68
2021/08/25 01:46:04;;;;;;;17.75;13.73;;;10.80;99.90;;;;;;4896192;29;20143;-69
2021/08/25 01:48:34;;;;;;;16.65;12.52;;;10.80;99.90;;;;;;4897704;29;20139;-69
2021/08/25 01:51:03;;;;;;;19.48;13.80;;;10.80;99.90;;;;;;4881749;29;20057;-68
2021/08/25 01:53:31;;;;;;;19.95;13.38;;;10.80;99.90;;;;;;4897725;29;20052;-68
2021/08/25 01:55:58;;;;;;;19.10;13.32;;;10.80;99.90;;;;;;4897703;29;20238;-69
2021/08/25 01:58:25;;;;;;;17.60;13.82;;;10.80;99.90;;;;;;4896297;29;20389;-69
2021/08/25 02:00:52;;;;;;;18.08;12.80;;;10.80;99.90;;;;;;4897490;29;20384;-69
2021/08/25 02:03:20;;;;;;;16.05;12.35;;;10.80;99.90;;;;;;4897447;29;20064;-69
2021/08/25 02:05:47;;;;;;;18.85;12.55;;;10.70;99.90;;;;;;4887565;29;20044;-68
2021/08/25 02:08:15;;;;;;;17.00;12.55;;;10.70;99.90;;;;;;4878592;29;20052;-68
2021/08/25 02:10:42;;;;;;;18.85;13.75;;;10.70;99.90;;;;;;4875083;29;20131;-68
2021/08/25 02:13:09;;;;;;;17.10;12.82;;;10.60;99.90;;;;;;4877196;29;20060;-68
2021/08/25 02:15:37;;;;;;;16.80;13.73;;;10.60;99.90;;;;;;4895094;29;20056;-70
2021/08/25 02:18:04;;;;;;;17.13;13.40;;;10.60;99.90;;;;;;4896497;29;20135;-70
2021/08/25 02:20:32;;;;;;;19.00;14.20;;;10.60;99.90;;;;;;4897144;29;20532;-70
2021/08/25 02:22:59;;;;;;;18.60;14.52;;;10.60;99.90;;;;;;4897286;29;20048;-70
2021/08/25 02:25:27;;;;;;;16.50;12.68;;;10.60;99.90;;;;;;4894823;29;20140;-70
2021/08/25 02:27:54;;;;;;;17.50;13.25;;;10.50;99.90;;;;;;4894782;29;20480;-70
2021/08/25 02:30:21;;;;;;;16.17;12.38;;;10.50;99.90;;;;;;4896690;29;20139;-70
2021/08/25 02:32:49;;;;;;;18.00;12.68;;;10.50;99.90;;;;;;4888970;29;20063;-68
2021/08/25 02:35:16;;;;;;;19.90;14.27;;;10.50;99.90;;;;;;4896544;29;20053;-68
2021/08/25 02:37:43;;;;;;;21.83;14.68;;;10.50;99.90;;;;;;4889124;29;20137;-70
2021/08/25 02:40:11;;;;;;;23.20;15.02;;;10.50;99.90;;;;;;4895576;29;20063;-68
2021/08/25 02:42:39;;;;;;;23.52;15.45;;;10.50;99.90;;;;;;4894166;29;20048;-68
2021/08/25 02:45:08;;;;;;;17.08;13.43;;;10.50;99.90;;;;;;4895654;29;20492;-68
2021/08/25 02:47:36;;;;;;;19.27;13.82;;;10.40;99.90;;;;;;4871994;29;20052;-68
2021/08/25 02:50:05;;;;;;;18.90;12.98;;;10.40;99.90;;;;;;4892861;29;20057;-68
2021/08/25 02:52:32;;;;;;;18.20;12.63;;;10.40;99.90;;;;;;4895259;29;20602;-69
2021/08/25 02:55:00;;;;;;;16.00;12.38;;;10.40;99.90;;;;;;4894593;29;20048;-68
2021/08/25 02:57:27;;;;;;;17.85;12.43;;;10.40;99.90;;;;;;4895385;29;20048;-69
2021/08/25 02:59:54;;;;;;;14.80;11.73;;;10.40;99.90;;;;;;4894691;29;20060;-69
2021/08/25 03:02:21;;;;;;;14.77;11.52;;;10.30;99.90;;;;;;4895354;29;20049;-69
2021/08/25 03:04:49;;;;;;;17.90;12.32;;;10.30;99.90;;;;;;4895010;29;20135;-68
2021/08/25 03:07:16;;;;;;;17.92;12.27;;;10.20;99.90;;;;;;4893605;29;20037;-68
2021/08/25 03:09:43;;;;;;;15.75;12.20;;;10.20;99.90;;;;;;4895684;29;20529;-68
2021/08/25 03:12:10;;;;;;;16.08;12.45;;;10.20;99.90;;;;;;4893566;29;20059;-68
2021/08/25 03:14:38;;;;;;;18.35;12.13;;;10.20;99.90;;;;;;4894770;29;20052;-68
2021/08/25 03:17:05;;;;;;;15.95;12.10;;;10.20;99.90;;;;;;4893638;29;20055;-68
2021/08/25 03:19:32;;;;;;;17.92;13.20;;;10.10;99.90;;;;;;4894350;29;20059;-68
2021/08/25 03:22:00;;;;;;;16.35;12.13;;;10.10;99.90;;;;;;4893290;29;20117;-68
2021/08/25 03:24:27;;;;;;;19.48;13.02;;;10.10;99.90;;;;;;4893245;29;20041;-68
2021/08/25 03:26:54;;;;;;;20.38;13.57;;;10.10;99.90;;;;;;4912485;29;20455;-68
2021/08/25 03:29:21;;;;;;;18.17;13.70;;;10.20;99.90;;;;;;4892485;29;20586;-70
2021/08/25 03:31:49;;;;;;;17.98;13.98;;;10.10;99.90;;;;;;4891424;29;20056;-69
2021/08/25 03:34:17;;;;;;;16.30;12.45;;;10.10;99.90;;;;;;4893116;29;20048;-68
2021/08/25 03:36:44;;;;;;;17.27;13.13;;;10.10;99.90;;;;;;4908164;29;20040;-68
2021/08/25 03:39:12;;;;;;;16.58;12.25;;;10.10;99.90;;;;;;4900213;29;20551;-68
2021/08/25 03:41:39;;;;;;;20.52;13.88;;;10.10;99.90;;;;;;4893407;29;20049;-68
2021/08/25 03:44:06;;;;;;;17.85;13.45;;;10.10;99.90;;;;;;4894104;29;20049;-68
2021/08/25 03:46:34;;;;;;;18.80;13.25;;;10.00;99.90;;;;;;4895195;29;20051;-69
2021/08/25 03:49:03;;;;;;;16.55;12.27;;;10.00;99.90;;;;;;4891587;29;20055;-68
2021/08/25 03:51:30;;;;;;;16.55;12.25;;;10.00;99.90;;;;;;4891200;29;20428;-68
2021/08/25 03:53:58;;;;;;;16.77;12.55;;;9.90;99.90;;;;;;4890475;29;20068;-68
2021/08/25 03:56:25;;;;;;;17.00;12.57;;;9.90;99.90;;;;;;4887540;29;20416;-68
2021/08/25 03:58:52;;;;;;;16.30;12.20;;;9.90;99.90;;;;;;4894137;29;20058;-68
2021/08/25 04:01:19;;;;;;;16.58;12.60;;;9.80;99.90;;;;;;4886038;29;20045;-68
2021/08/25 04:03:47;;;;;;;18.50;12.75;;;9.80;99.90;;;;;;4888847;29;20128;-68
2021/08/25 04:06:15;;;;;;;16.98;11.93;;;9.80;99.90;;;;;;4892641;29;20534;-68
2021/08/25 04:08:42;;;;;;;16.77;12.02;;;9.80;99.90;;;;;;4887694;29;20079;-68
2021/08/25 04:11:09;;;;;;;16.65;11.93;;;9.80;99.90;;;;;;4876214;29;20472;-68
2021/08/25 04:13:36;;;;;;;16.17;12.65;;;9.70;99.90;;;;;;4887863;29;20459;-68
2021/08/25 04:16:04;;;;;;;16.27;12.57;;;9.70;99.90;;;;;;4882514;29;20079;-68
2021/08/25 04:18:31;;;;;;;18.15;13.00;;;9.70;99.90;;;;;;4893065;29;20052;-70
2021/08/25 04:20:59;;;;;;;16.63;12.70;;;9.70;99.90;;;;;;4876641;29;20157;-68
2021/08/25 04:23:26;;;;;;;17.23;12.93;;;9.70;99.90;;;;;;4892437;29;20044;-68
2021/08/25 04:25:53;;;;;;;21.05;12.80;;;9.70;99.90;;;;;;4893494;29;20053;-68
2021/08/25 04:28:20;;;;;;;20.17;13.45;;;9.80;99.90;;;;;;4892351;29;20079;-68
2021/08/25 04:30:48;;;;;;;19.15;13.32;;;9.70;99.90;;;;;;4890713;29;20083;-68
2021/08/25 04:33:15;;;;;;;17.15;12.60;;;9.70;99.90;;;;;;4893172;29;20105;-68
2021/08/25 04:35:42;;;;;;;15.70;11.93;;;9.80;99.90;;;;;;4893384;29;20045;-68
2021/08/25 04:38:09;;;;;;;16.15;12.50;;;9.80;99.90;;;;;;4893821;29;20053;-68
2021/08/25 04:40:37;;;;;;;18.10;13.85;;;9.70;99.90;;;;;;4895968;29;20059;-69
2021/08/25 04:43:04;;;;;;;19.58;13.77;;;9.80;99.90;;;;;;4892405;29;20163;-68
2021/08/25 04:45:31;;;;;;;19.17;13.30;;;9.80;99.90;;;;;;4893589;29;20040;-70
2021/08/25 04:47:59;;;;;;;16.65;13.55;;;9.90;99.90;;;;;;4892277;29;20053;-68
2021/08/25 04:50:27;;;;;;;18.70;13.82;;;9.90;99.90;;;;;;4891022;29;20044;-68
2021/08/25 04:52:56;;;;;;;17.50;12.80;;;10.00;99.90;;;;;;4897866;29;20049;-68
2021/08/25 04:55:23;;;;;;;17.90;13.48;;;10.00;99.90;;;;;;4884283;29;20431;-68
2021/08/25 04:57:50;;;;;;;20.58;13.57;;;10.00;99.90;;;;;;4896699;29;20057;-68
2021/08/25 05:00:18;;;;;;;19.45;13.13;;;10.10;99.90;;;;;;4891821;29;20512;-70
2021/08/25 05:02:46;;;;;;;19.67;13.43;;;10.10;99.90;;;;;;4895166;29;20392;-70
2021/08/25 05:05:13;;;;;;;16.35;13.10;;;10.20;99.90;;;;;;4884562;29;20440;-70
2021/08/25 05:07:40;;;;;;;22.60;15.77;;;10.30;99.90;;;;;;4880031;29;20063;-70
2021/08/25 05:10:08;;;;;;;24.00;17.45;;;10.30;99.90;;;;;;4896117;29;20052;-70
2021/08/25 05:12:35;;;;;;;21.73;17.20;;;10.40;99.90;;;;;;4895998;29;20522;-70
2021/08/25 05:15:04;;;;;;;18.30;14.07;;;10.50;99.90;;;;;;4896717;29;20102;-70
2021/08/25 05:17:32;;;;;;;16.92;13.18;;;10.60;99.90;;;;;;4897280;29;20044;-70
2021/08/25 05:20:01;;;;;;;17.85;13.35;;;10.60;99.90;;;;;;4895772;29;20049;-70
2021/08/25 05:22:29;;;;;;;19.08;13.73;;;10.70;99.90;;;;;;4885137;29;20047;-70
2021/08/25 05:24:56;;;;;;;17.10;13.05;;;10.80;99.90;;;;;;4882456;29;20412;-71
2021/08/25 05:27:24;;;;;;;16.98;13.45;;;10.80;99.90;;;;;;4868449;29;20067;-70
2021/08/25 05:29:51;;;;;;;15.18;11.27;;;10.90;99.90;;;;;;4890688;29;20057;-70
2021/08/25 05:32:18;;;;;;;20.58;12.93;;;11.00;99.90;;;;;;4891277;29;20043;-69
2021/08/25 05:34:46;;;;;;;17.05;12.05;;;11.10;99.90;;;;;;4897824;29;20045;-70
2021/08/25 05:37:13;;;;;;;15.20;11.20;;;11.10;99.90;;;;;;4893032;29;20052;-70
2021/08/25 05:39:40;;;;;;;15.55;12.18;;;11.20;99.90;;;;;;4898191;29;20044;-70
2021/08/25 05:42:07;;;;;;;13.73;10.80;;;11.30;99.90;;;;;;4875402;29;20117;-70
2021/08/25 05:44:35;;;;;;;13.82;10.45;;;11.40;99.90;;;;;;4886494;29;20041;-70
2021/08/25 05:47:02;;;;;;;15.63;10.43;;;11.50;99.90;;;;;;4894973;29;20444;-70
2021/08/25 05:49:29;;;;;;;14.27;10.93;;;11.60;99.90;;;;;;4878658;29;20464;-70
2021/08/25 05:51:57;;;;;;;15.88;10.30;;;11.60;99.90;;;;;;4887862;29;20058;-70
2021/08/25 05:54:24;;;;;;;14.88;11.20;;;11.70;99.90;;;;;;4894995;29;20530;-70
2021/08/25 05:56:51;;;;;;;19.75;11.90;;;11.80;99.90;;;;;;4895823;29;20477;-70
2021/08/25 05:59:18;;;;;;;12.82;10.07;;;11.80;99.90;;;;;;4891797;29;20049;-69
2021/08/25 06:01:45;;;;;;;17.85;12.95;;;11.90;99.90;;;;;;4883206;29;20048;-69
2021/08/25 06:04:13;;;;;;;13.25;10.50;;;11.90;99.90;;;;;;4880508;29;20051;-70
2021/08/25 06:06:40;;;;;;;16.48;11.73;;;12.00;99.90;;;;;;4892796;29;20132;-70
2021/08/25 06:09:08;;;;;;;14.68;11.02;;;12.10;99.90;;;;;;4891711;29;20044;-70
2021/08/25 06:11:39;;;;;;;13.20;9.98;;;12.10;99.90;;;;;;4896514;29;20051;-70
2021/08/25 06:14:07;;;;;;;16.03;10.60;;;12.20;99.90;;;;;;4896632;29;20518;-70
2021/08/25 06:16:35;;;;;;;13.43;8.98;;;12.30;99.90;;;;;;4893609;29;20057;-70
2021/08/25 06:19:05;;;;;;;18.85;10.05;;;12.40;99.90;;;;;;4886649;29;20823;-69
2021/08/25 06:21:51;;;;;;;12.63;9.00;;;12.50;99.90;;;;;;4893438;29;20368;-69
2021/08/25 06:24:18;;;;;;;11.27;8.88;;;12.50;99.90;;;;;;4896218;29;20124;-70
2021/08/25 06:26:45;;;;;;;13.88;10.30;;;12.60;99.90;;;;;;4891987;29;20054;-69
2021/08/25 06:29:12;;;;;;;14.98;10.52;;;12.70;99.90;;;;;;4896242;29;20404;-70
2021/08/25 06:31:40;;;;;;;13.25;8.90;;;12.80;99.90;;;;;;4889076;29;20132;-69
2021/08/25 06:34:07;;;;;;;15.57;10.93;;;12.80;99.90;;;;;;4879304;29;20150;-70
2021/08/25 06:36:34;;;;;;;18.05;11.05;;;12.80;99.90;;;;;;4895442;29;20606;-69
2021/08/25 06:39:01;;;;;;;13.57;9.93;;;12.80;99.90;;;;;;4898502;29;20044;-70
2021/08/25 06:41:29;;;;;;;14.23;10.05;;;12.90;99.90;;;;;;4899183;29;20049;-70
2021/08/25 06:43:56;;;;;;;14.75;9.90;;;13.00;99.90;;;;;;4893937;29;20044;-70
2021/08/25 06:46:23;;;;;;;15.00;10.57;;;13.10;99.90;;;;;;4878653;29;20060;-70
2021/08/25 06:48:51;;;;;;;12.68;10.05;;;13.10;99.90;;;;;;4891518;29;20132;-69
2021/08/25 06:51:18;;;;;;;18.52;10.40;;;13.20;99.90;;;;;;4887236;29;20494;-70
2021/08/25 06:53:45;;;;;;;14.43;10.38;;;13.30;99.90;;;;;;4891962;29;20235;-69
2021/08/25 06:56:12;;;;;;;16.33;11.40;;;13.40;99.90;;;;;;4891854;29;20465;-69
2021/08/25 06:58:40;;;;;;;14.18;10.68;;;13.40;99.90;;;;;;4887204;29;20613;-70
2021/08/25 07:01:08;;;;;;;15.82;11.50;;;13.40;99.90;;;;;;4891806;29;20044;-70
2021/08/25 07:03:36;;;;;;;13.73;10.38;;;13.40;99.90;;;;;;4891876;29;20044;-70
2021/08/25 07:06:04;;;;;;;18.73;11.43;;;13.40;99.90;;;;;;4893735;29;20048;-69
2021/08/25 07:08:31;;;;;;;13.93;10.80;;;13.40;99.90;;;;;;4892174;29;20058;-70
2021/08/25 07:10:58;;;;;;;13.90;10.05;;;13.40;99.90;;;;;;4894872;29;20060;-70
2021/08/25 07:13:25;;;;;;;12.32;9.55;;;13.50;99.90;;;;;;4891338;29;20045;-69
2021/08/25 07:15:53;;;;;;;12.13;8.68;;;13.70;99.90;;;;;;4894976;29;20071;-70
2021/08/25 07:18:20;;;;;;;11.32;8.57;;;13.80;99.90;;;;;;4894510;29;20132;-69
2021/08/25 07:20:48;;;;;;;11.27;8.45;;;14.00;99.90;;;;;;4890993;29;20048;-70
2021/08/25 07:23:15;;;;;;;12.25;8.98;;;14.10;99.90;;;;;;4893254;29;20416;-70
2021/08/25 07:25:42;;;;;;;13.15;8.73;;;14.20;99.90;;;;;;4892107;29;20055;-69
2021/08/25 07:28:10;;;;;;;12.25;9.10;;;14.30;99.90;;;;;;4894206;29;20139;-70
2021/08/25 07:30:37;;;;;;;11.93;8.07;;;14.50;99.90;;;;;;4890446;29;20048;-68
2021/08/25 07:33:04;;;;;;;12.75;8.07;;;14.60;99.90;;;;;;4892585;29;20091;-68
2021/08/25 07:35:32;;;;;;;14.65;9.40;;;14.70;99.90;;;;;;4892645;29;20046;-68
2021/08/25 07:37:59;;;;;;;11.60;7.97;;;14.80;99.90;;;;;;4888744;29;20448;-68
2021/08/25 07:40:26;;;;;;;12.05;7.47;;;15.00;99.90;;;;;;4886672;29;20041;-68
2021/08/25 07:42:53;;;;;;;11.23;7.88;;;15.10;99.90;;;;;;4890813;29;20060;-68
2021/08/25 07:45:21;;;;;;;12.23;8.10;;;15.20;99.90;;;;;;4887984;29;20044;-68
2021/08/25 07:47:49;;;;;;;10.85;6.85;;;15.30;99.90;;;;;;4887367;29;20050;-68
2021/08/25 07:50:16;;;;;;;10.48;6.95;;;15.40;99.90;;;;;;4877268;29;20064;-68
2021/08/25 07:52:43;;;;;;;11.07;8.10;;;15.60;99.90;;;;;;4885408;29;20064;-69
2021/08/25 07:55:11;;;;;;;9.98;6.88;;;15.70;99.90;;;;;;4903577;29;20049;-68
2021/08/25 07:57:38;;;;;;;8.48;6.00;;;15.80;99.90;;;;;;4876181;29;20499;-68
2021/08/25 08:00:06;;;;;;;8.48;6.10;;;15.90;99.90;;;;;;4892504;29;20041;-69
2021/08/25 08:02:34;;;;;;;9.32;5.57;;;16.00;99.90;;;;;;4897060;29;20123;-68
2021/08/25 08:05:04;;;;;;;11.48;6.68;;;16.10;99.90;;;;;;4893566;29;20123;-68
2021/08/25 08:07:31;;;;;;;7.95;5.03;;;16.20;99.90;;;;;;4891163;29;20055;-68
2021/08/25 08:09:58;;;;;;;9.80;5.97;;;16.30;99.90;;;;;;4919225;29;20072;-69
2021/08/25 08:12:26;;;;;;;7.57;5.00;;;16.50;99.90;;;;;;4892932;29;20658;-69
2021/08/25 08:14:53;;;;;;;10.68;5.68;;;16.60;99.90;;;;;;4893119;29;20063;-68
2021/08/25 08:17:22;;;;;;;7.50;4.72;;;16.70;99.90;;;;;;4892217;29;20060;-69
2021/08/25 08:19:51;;;;;;;9.60;5.20;;;16.80;99.90;;;;;;4891217;29;20155;-69
2021/08/25 08:22:18;;;;;;;10.65;5.40;;;16.90;99.90;;;;;;4892679;29;20040;-69
2021/08/25 08:24:45;;;;;;;8.23;4.03;;;17.10;99.90;;;;;;4888379;29;20068;-69
2021/08/25 08:27:12;;;;;;;6.22;3.22;;;17.30;99.90;;;;;;4880885;29;20131;-69
2021/08/25 08:29:40;;;;;;;9.38;3.85;;;17.40;99.90;;;;;;4897395;29;20063;-69
2021/08/25 08:32:10;;;;;;;11.00;4.35;;;17.50;99.90;;;;;;4895845;29;20056;-69
2021/08/25 08:34:38;;;;;;;7.18;4.38;;;17.60;99.90;;;;;;4895631;29;20519;-69
2021/08/25 08:37:05;;;;;;;7.40;4.07;;;17.70;99.90;;;;;;4876377;29;20067;-69
2021/08/25 08:39:33;;;;;;;9.63;4.55;;;17.70;99.90;;;;;;4891724;29;20076;-69
2021/08/25 08:42:00;;;;;;;9.68;4.57;;;17.90;99.90;;;;;;4888266;29;20045;-69
2021/08/25 08:44:27;;;;;;;8.60;4.55;;;18.00;99.90;;;;;;4879334;29;20051;-69
2021/08/25 08:46:55;;;;;;;11.73;5.43;;;18.10;99.90;;;;;;4897714;29;20048;-69
2021/08/25 08:49:23;;;;;;;10.07;5.70;;;18.30;99.90;;;;;;4896489;29;20071;-69
2021/08/25 08:51:51;;;;;;;10.52;5.55;;;18.50;99.90;;;;;;4897299;29;20049;-69
2021/08/25 08:54:19;;;;;;;12.57;6.80;;;18.50;99.90;;;;;;4896447;29;20052;-69
2021/08/25 08:56:49;;;;;;;11.52;6.22;;;18.60;99.90;;;;;;4897652;29;20422;-70
2021/08/25 08:59:17;;;;;;;10.57;4.82;;;18.80;99.90;;;;;;4891502;29;20057;-69
2021/08/25 09:01:45;;;;;;;9.40;4.85;;;18.90;99.90;;;;;;4893752;29;20361;-69
2021/08/25 09:04:31;;;;;;;11.02;5.28;;;19.00;99.90;;;;;;4895031;29;20128;-69
2021/08/25 09:06:59;;;;;;;9.05;4.60;;;19.10;99.90;;;;;;4896327;29;20135;-69
2021/08/25 09:09:26;;;;;;;9.80;5.47;;;19.30;99.90;;;;;;4896801;29;20059;-69
2021/08/25 09:11:55;;;;;;;9.52;5.32;;;19.40;99.90;;;;;;4893637;29;20044;-71
2021/08/25 09:14:26;;;;;;;9.13;4.63;;;19.50;99.90;;;;;;4895012;29;20100;-69
2021/08/25 09:17:00;;;;;;;9.73;4.53;;;19.60;99.90;;;;;;4891987;29;20060;-69
2021/08/25 09:19:35;;;;;;;9.18;4.40;;;19.70;99.90;;;;;;4895014;29;20067;-69
2021/08/25 09:22:16;;;;;;;12.07;5.40;;;19.80;99.90;;;;;;4893530;29;20125;-70
2021/08/25 09:24:44;;;;;;;8.95;4.70;;;19.90;99.90;;;;;;4896151;29;20063;-69
2021/08/25 09:27:16;;;;;;;13.55;8.40;;;20.10;99.90;;;;;;4895132;29;20040;-70
2021/08/25 09:29:53;;;;;;;12.73;7.05;;;20.20;99.90;;;;;;4894801;29;20072;-69
2021/08/25 09:32:26;;;;;;;8.45;4.30;;;20.30;99.90;;;;;;4895512;29;20050;-69
2021/08/25 09:34:59;;;;;;;7.88;4.40;;;20.30;99.90;;;;;;4895802;29;20407;-69
2021/08/25 09:37:28;;;;;;;8.48;4.93;;;20.40;99.90;;;;;;4892800;29;20048;-69
2021/08/25 09:39:59;;;;;;;8.80;4.47;;;20.50;99.90;;;;;;4890476;29;20052;-69
2021/08/25 09:42:46;;;;;;;9.20;5.18;;;20.60;99.90;;;;;;4909031;29;20051;-69
2021/08/25 09:45:17;;;;;;;11.23;4.65;;;20.70;99.90;;;;;;4894162;29;20049;-70
2021/08/25 09:47:49;;;;;;;12.30;5.80;;;20.70;99.90;;;;;;4893806;29;20538;-69
2021/08/25 09:50:21;;;;;;;9.43;5.78;;;20.70;99.90;;;;;;4891245;29;20041;-69
2021/08/25 09:52:49;;;;;;;9.95;4.93;;;21.00;99.90;;;;;;4894253;29;20602;-69
2021/08/25 09:55:34;;;;;;;11.00;6.78;;;21.30;99.90;;;;;;4883181;29;20092;-69
2021/08/25 09:58:02;;;;;;;10.00;4.28;;;21.60;99.90;;;;;;4893737;29;20062;-69
2021/08/25 10:00:29;;;;;;;10.52;4.80;;;21.70;99.90;;;;;;4894875;29;20041;-69
2021/08/25 10:02:58;;;;;;;7.32;4.50;;;21.60;99.90;;;;;;4887742;29;20105;-70
2021/08/25 10:05:27;;;;;;;7.05;4.07;;;21.60;99.90;;;;;;4893741;29;20041;-70
2021/08/25 10:08:05;;;;;;;11.85;5.65;;;21.60;99.90;;;;;;4891961;29;20054;-69
2021/08/25 10:10:32;;;;;;;11.48;5.35;;;21.80;99.90;;;;;;4917657;29;20567;-70
2021/08/25 10:12:59;;;;;;;10.48;5.72;;;22.00;99.90;;;;;;4893492;29;20136;-70
2021/08/25 10:15:34;;;;;;;10.77;7.10;;;22.10;99.90;;;;;;4894570;29;20555;-69
2021/08/25 10:18:23;;;;;;;7.15;3.47;;;22.20;99.90;;;;;;4887890;29;20058;-69
2021/08/25 10:20:52;;;;;;;6.22;4.05;;;22.20;99.90;;;;;;4909236;29;20052;-70
2021/08/25 10:23:19;;;;;;;8.13;4.50;;;21.90;99.90;;;;;;4896287;29;20094;-70
2021/08/25 10:26:07;;;;;;;7.93;4.72;;;21.90;99.90;;;;;;4890961;29;20411;-70
2021/08/25 10:28:59;;;;;;;9.52;5.07;;;21.90;99.90;;;;;;4888170;29;20055;-70
2021/08/25 10:31:48;;;;;;;9.75;6.20;;;22.20;99.90;;;;;;4895246;29;20169;-70
2021/08/25 10:34:26;;;;;;;7.65;4.50;;;22.60;99.90;;;;;;4894218;29;20084;-70
2021/08/25 10:37:19;;;;;;;7.07;4.13;;;22.90;99.90;;;;;;4893371;29;20112;-70
2021/08/25 10:39:56;;;;;;;7.45;3.80;;;23.00;99.90;;;;;;4891857;29;20055;-70
2021/08/25 10:42:42;;;;;;;7.95;3.85;;;22.90;99.90;;;;;;4881020;29;20049;-70
2021/08/25 10:45:10;;;;;;;8.57;4.15;;;22.90;99.90;;;;;;4893612;29;20059;-70
2021/08/25 10:48:02;;;;;;;7.70;4.00;;;22.80;99.90;;;;;;4894599;29;20518;-70
2021/08/25 10:50:49;;;;;;;10.40;5.82;;;22.90;99.90;;;;;;4887929;29;20515;-70
2021/08/25 10:53:28;;;;;;;8.00;5.43;;;23.00;99.90;;;;;;4895219;29;20079;-70
2021/08/25 10:56:09;;;;;;;8.13;4.35;;;22.80;99.90;;;;;;4882047;29;20117;-70
2021/08/25 10:58:52;;;;;;;8.57;3.92;;;22.80;99.90;;;;;;4902511;29;20041;-69
2021/08/25 11:01:21;;;;;;;8.05;4.03;;;22.90;99.90;;;;;;4894124;29;20063;-69
2021/08/25 11:03:49;;;;;;;8.90;4.13;;;23.20;99.90;;;;;;4893092;29;20116;-69
2021/08/25 11:06:31;;;;;;;7.72;4.03;;;23.50;99.90;;;;;;4893229;29;20253;-69
2021/08/25 11:09:17;;;;;;;10.23;4.00;;;23.80;99.90;;;;;;4887516;29;20049;-69
2021/08/25 11:11:46;;;;;;;7.05;3.88;;;24.00;99.90;;;;;;4890496;29;20068;-69
2021/08/25 11:14:25;;;;;;;8.05;3.67;;;24.10;99.90;;;;;;4892911;29;20064;-69
2021/08/25 11:16:54;;;;;;;7.63;4.20;;;24.40;99.90;;;;;;4889978;29;20108;-69
2021/08/25 11:19:27;;;;;;;8.90;3.92;;;24.60;99.90;;;;;;4871127;29;20165;-69
2021/08/25 11:21:56;;;;;;;8.20;4.18;;;24.80;99.90;;;;;;4888223;29;20057;-69
2021/08/25 11:24:29;;;;;;;9.05;4.22;;;25.20;99.90;;;;;;4877434;29;20041;-69
2021/08/25 11:26:57;;;;;;;8.15;3.80;;;25.30;99.90;;;;;;4891715;29;20048;-69
2021/08/25 11:29:25;;;;;;;6.80;3.97;;;25.40;99.90;;;;;;4893880;29;20048;-69
2021/08/25 11:31:52;;;;;;;6.25;3.85;;;25.60;99.90;;;;;;4892961;29;20075;-69
2021/08/25 11:34:21;;;;;;;8.23;3.72;;;25.90;99.90;;;;;;4892476;29;20055;-69
2021/08/25 11:36:55;;;;;;;6.82;3.70;;;26.20;99.90;;;;;;4886616;29;20057;-69
2021/08/25 11:39:23;;;;;;;9.43;4.95;;;26.50;99.90;;;;;;4894237;29;20074;-69
2021/08/25 11:41:51;;;;;;;7.72;4.50;;;26.70;99.90;;;;;;4892476;29;20044;-69
2021/08/25 11:44:37;;;;;;;7.70;3.92;;;26.70;99.90;;;;;;4887562;29;20048;-69
2021/08/25 11:47:24;;;;;;;6.72;3.75;;;26.50;99.90;;;;;;4876504;29;20412;-69
2021/08/25 11:49:56;;;;;;;5.78;3.42;;;26.80;99.90;;;;;;4891861;29;20047;-69
2021/08/25 11:52:40;;;;;;;6.00;3.47;;;27.10;99.90;;;;;;4905305;29;20041;-69
2021/08/25 11:55:08;;;;;;;5.95;3.42;;;27.60;99.90;;;;;;4894680;29;20064;-69
2021/08/25 11:57:47;;;;;;;6.47;3.72;;;27.90;99.90;;;;;;4892545;29;20131;-69
2021/08/25 12:00:16;;;;;;;6.40;3.85;;;28.10;99.90;;;;;;4893698;29;20059;-69
2021/08/25 12:02:57;;;;;;;6.22;3.53;;;28.30;99.90;;;;;;4891668;29;20049;-69
2021/08/25 12:05:26;;;;;;;7.80;3.78;;;28.80;98.20;;;;;;4890958;29;20049;-69
2021/08/25 12:08:01;;;;;;;6.47;3.45;;;29.10;97.20;;;;;;4889194;29;20500;-69
2021/08/25 12:10:30;;;;;;;6.18;3.63;;;29.40;95.50;;;;;;4892401;29;20052;-70
2021/08/25 12:12:57;;;;;;;6.78;3.90;;;29.80;94.90;;;;;;4894218;29;20517;-69
2021/08/25 12:15:46;;;;;;;6.07;3.75;;;30.10;94.30;;;;;;4892342;29;20051;-69
2021/08/25 12:18:16;;;;;;;6.78;3.55;;;30.30;93.50;;;;;;4892439;29;20526;-69
2021/08/25 12:20:45;;;;;;;6.47;3.80;;;30.00;93.00;;;;;;4892958;29;20048;-70
2021/08/25 12:23:15;;;;;;;5.75;3.30;;;29.80;93.40;;;;;;4893075;29;20048;-70
2021/08/25 12:25:44;;;;;;;7.05;3.67;;;30.00;93.00;;;;;;4892283;29;20055;-70
2021/08/25 12:28:16;;;;;;;6.28;3.40;;;30.20;92.90;;;;;;4893042;29;20056;-70
2021/08/25 12:30:44;;;;;;;8.93;3.67;;;29.80;91.80;;;;;;4892190;29;20529;-69
2021/08/25 12:33:28;;;;;;;10.15;3.55;;;29.70;92.30;;;;;;4886398;29;20061;-69
2021/08/25 12:35:55;;;;;;;6.57;3.63;;;29.70;92.30;;;;;;4892367;29;20048;-70
2021/08/25 12:38:30;;;;;;;6.88;3.78;;;30.10;92.90;;;;;;4896551;29;20062;-70
2021/08/25 12:40:57;;;;;;;7.05;3.47;;;30.30;90.80;;;;;;4891379;29;20056;-70
2021/08/25 12:43:25;;;;;;;7.85;4.10;;;30.20;91.40;;;;;;4883848;29;20049;-70
2021/08/25 12:45:52;;;;;;;6.78;3.78;;;30.40;91.20;;;;;;4891774;29;20342;-70
2021/08/25 12:48:19;;;;;;;5.40;3.13;;;30.60;91.30;;;;;;4884057;29;20151;-70